Aviation Digital Data Service (ADDS)

Output produced by METARs form (1358 UTC 22 April 2019)
found at http://www.aviationweather.gov/metar/data/
 
Forecast for: WIMM (MEDAN/POLONIA (M, ID)
Text: TAF WIMM 221100Z 2212/2312 VRB04KT 5000 HZ SCT017
Forecast period: 1200 UTC 22 April 2019 to 0200 UTC 23 April 2019
Forecast type: FROM: standard forecast or significant change
Winds: variable direction winds at 5 MPH (4 knots; 2.1 m/s)
Visibility: 3 miles (5 km)
Ceiling: at least 12,000 feet AGL
Clouds: scattered clouds at 1700 feet AGL
Weather: HZ  (haze)
Text: BECMG 2302/2304 33010KT 9999 NSW
Forecast period: 0200 to 1200 UTC 23 April 2019
Forecast type: BECOMING: Conditions expected to become as follows by 0400 UTC 23 April 2019
Winds: from the NNW (330 degrees) at 12 MPH (10 knots; 5.1 m/s)
Visibility: 6 or more miles 10+ km)
Ceiling: at least 12,000 feet AGL
Clouds: scattered clouds at 1700 feet AGL
Weather: NSW  (no significant weather)
Text: TEMPO 2310/2312 07005KT 6000 -RA FEW016CB SCT018
Forecast period: 1000 to 1200 UTC 23 April 2019
Forecast type: TEMPORARY: The following changes expected for less than half the time period
Winds: from the ENE (70 degrees) at 6 MPH (5 knots; 2.6 m/s)
Visibility: 4 miles (6 km)
Ceiling: at least 12,000 feet AGL
Clouds: few clouds at 1600 feet AGL
scattered clouds at 1800 feet AGL
Weather: -RA  (light rain)